Time;durP1;ratioP1;P1;durP2;ratioP2;P2;SDS_P1;SDS_P2;PMS_P1;PMS_P2;Temp;Humidity;BMP_temperature;BMP_pressure;BME280_temperature;BME280_humidity;BME280_pressure;Samples;Min_cycle;Max_cycle;Signal;HPM_P1;HPM_P2
2022/03/08 00:00:10;;;;;;;15.57;1.63;;;22.00;99.90;;;;;;5053356;28;20209;-85
2022/03/08 00:02:41;;;;;;;9.50;1.52;;;22.00;99.90;;;;;;5056245;28;20226;-83
2022/03/08 00:05:12;;;;;;;9.63;1.90;;;22.00;99.90;;;;;;5057059;28;20185;-86
2022/03/08 00:07:45;;;;;;;11.23;2.53;;;21.90;99.90;;;;;;5056698;28;20196;-87
2022/03/08 00:10:18;;;;;;;12.90;2.33;;;21.90;99.90;;;;;;5041311;28;20242;-90
2022/03/08 00:12:49;;;;;;;13.75;2.08;;;21.90;99.90;;;;;;5046353;28;20224;-86
2022/03/08 00:15:22;;;;;;;12.10;2.65;;;21.90;99.90;;;;;;5056971;28;20280;-86
2022/03/08 00:17:53;;;;;;;7.25;1.77;;;21.80;99.90;;;;;;5038607;28;20579;-88
2022/03/08 00:20:24;;;;;;;10.90;1.95;;;21.80;99.90;;;;;;5036746;28;20202;-90
2022/03/08 00:22:55;;;;;;;10.65;2.28;;;21.70;99.90;;;;;;5036457;28;20193;-87
2022/03/08 00:25:28;;;;;;;11.63;2.10;;;21.70;99.90;;;;;;5036076;28;20194;-85
2022/03/08 00:27:59;;;;;;;11.07;3.13;;;21.70;99.90;;;;;;5037020;28;20221;-87
2022/03/08 00:30:30;;;;;;;8.32;2.25;;;21.70;99.90;;;;;;5056128;28;20194;-86
2022/03/08 00:33:01;;;;;;;7.90;2.00;;;21.60;99.90;;;;;;5056059;28;20627;-88
2022/03/08 00:35:32;;;;;;;7.70;1.70;;;21.60;99.90;;;;;;5056085;28;20192;-87
2022/03/08 00:38:02;;;;;;;6.82;1.73;;;21.60;99.90;;;;;;5055767;28;20238;-85
2022/03/08 00:40:35;;;;;;;9.02;1.90;;;21.50;99.90;;;;;;5056419;28;20255;-85
2022/03/08 00:43:06;;;;;;;10.25;1.77;;;21.50;99.90;;;;;;5056358;28;20288;-84
2022/03/08 00:45:37;;;;;;;7.78;1.48;;;21.50;99.90;;;;;;5055807;28;20193;-85
2022/03/08 00:48:08;;;;;;;10.23;1.60;;;21.50;99.90;;;;;;5056038;28;20192;-88
2022/03/08 00:50:38;;;;;;;8.82;1.52;;;21.50;99.90;;;;;;5056022;28;20645;-84
2022/03/08 00:53:09;;;;;;;12.23;1.83;;;21.50;99.90;;;;;;5055616;28;20228;-82
2022/03/08 00:55:42;;;;;;;6.78;1.70;;;21.60;99.90;;;;;;5055781;28;20194;-85
2022/03/08 00:58:13;;;;;;;6.60;2.05;;;21.50;99.90;;;;;;5055814;28;20194;-84
2022/03/08 01:00:44;;;;;;;6.88;2.10;;;21.50;99.90;;;;;;5055488;28;20190;-85
2022/03/08 01:03:15;;;;;;;10.82;2.38;;;21.50;99.90;;;;;;5055654;28;20539;-85
2022/03/08 01:05:46;;;;;;;7.75;1.73;;;21.50;99.90;;;;;;5044299;28;20213;-83
2022/03/08 01:08:16;;;;;;;9.35;2.25;;;21.50;99.90;;;;;;5035714;28;20206;-83
2022/03/08 01:10:49;;;;;;;7.82;2.20;;;21.50;99.90;;;;;;5040757;28;20707;-82
2022/03/08 01:13:20;;;;;;;12.07;2.63;;;21.50;99.90;;;;;;5041263;28;20221;-83
2022/03/08 01:15:51;;;;;;;6.80;1.80;;;21.50;99.90;;;;;;5036712;28;20191;-83
2022/03/08 01:18:21;;;;;;;4.75;1.50;;;21.50;99.90;;;;;;5055445;28;20208;-81
2022/03/08 01:20:52;;;;;;;5.40;1.80;;;21.50;99.90;;;;;;5055252;28;20194;-83
2022/03/08 01:23:23;;;;;;;4.72;1.67;;;21.50;99.90;;;;;;5055078;28;20193;-82
2022/03/08 01:25:55;;;;;;;5.13;1.60;;;21.50;99.90;;;;;;5055243;28;20190;-81
2022/03/08 01:28:26;;;;;;;4.78;1.40;;;21.40;99.90;;;;;;5050418;28;20193;-83
2022/03/08 01:30:57;;;;;;;6.70;1.60;;;21.40;99.90;;;;;;5035232;28;20273;-86
2022/03/08 01:33:27;;;;;;;4.72;1.70;;;21.30;99.90;;;;;;5035122;28;20226;-82
2022/03/08 01:36:00;;;;;;;5.88;1.83;;;21.30;99.90;;;;;;5034881;28;20560;-86
2022/03/08 01:38:30;;;;;;;5.25;1.88;;;21.30;99.90;;;;;;5034885;28;20234;-83
2022/03/08 01:41:03;;;;;;;10.30;2.10;;;21.20;99.90;;;;;;5034903;28;20194;-81
2022/03/08 01:43:33;;;;;;;6.90;1.45;;;21.20;99.90;;;;;;5034831;28;20186;-84
2022/03/08 01:46:04;;;;;;;5.90;1.50;;;21.20;99.90;;;;;;5034733;28;20193;-83
2022/03/08 01:48:35;;;;;;;5.72;1.60;;;21.20;99.90;;;;;;5034838;28;20198;-81
2022/03/08 01:51:06;;;;;;;4.03;1.30;;;21.20;99.90;;;;;;5034569;28;20244;-83
2022/03/08 01:53:37;;;;;;;6.05;1.50;;;21.10;99.90;;;;;;5034644;28;20214;-83
2022/03/08 01:56:11;;;;;;;6.07;1.52;;;21.10;99.90;;;;;;5034777;28;20190;-83
2022/03/08 01:58:42;;;;;;;6.45;1.52;;;21.10;99.90;;;;;;5034651;28;20190;-83
2022/03/08 02:01:12;;;;;;;3.70;1.40;;;21.10;99.90;;;;;;5034563;28;20190;-82
2022/03/08 02:03:43;;;;;;;10.15;1.70;;;21.00;99.90;;;;;;5034520;28;20197;-81
2022/03/08 02:06:14;;;;;;;6.80;1.70;;;21.00;99.90;;;;;;5049286;28;20716;-84
2022/03/08 02:08:45;;;;;;;5.68;1.77;;;20.90;99.90;;;;;;5054231;28;20551;-83
2022/03/08 02:11:18;;;;;;;4.65;1.33;;;20.90;99.90;;;;;;5044152;28;20268;-85
2022/03/08 02:13:49;;;;;;;6.43;1.60;;;20.90;99.90;;;;;;5052480;28;20229;-83
2022/03/08 02:16:19;;;;;;;6.50;1.77;;;21.00;99.90;;;;;;5048657;28;20700;-82
2022/03/08 02:18:50;;;;;;;8.55;1.50;;;20.90;99.90;;;;;;5034134;28;20194;-84
2022/03/08 02:21:22;;;;;;;4.57;1.45;;;20.90;99.90;;;;;;5033988;28;20650;-86
2022/03/08 02:23:53;;;;;;;7.35;1.40;;;20.80;99.90;;;;;;5033582;28;20246;-82
2022/03/08 02:26:24;;;;;;;7.53;1.65;;;20.80;99.90;;;;;;5034076;28;20252;-84
2022/03/08 02:28:55;;;;;;;10.35;1.60;;;20.80;99.90;;;;;;5042783;28;20196;-83
2022/03/08 02:31:26;;;;;;;10.05;1.77;;;20.90;99.90;;;;;;5053972;28;20650;-82
2022/03/08 02:33:56;;;;;;;8.10;1.42;;;20.80;99.90;;;;;;5053626;28;20224;-83
2022/03/08 02:36:29;;;;;;;9.80;1.88;;;20.80;99.90;;;;;;5053875;28;20198;-84
2022/03/08 02:39:03;;;;;;;8.88;1.67;;;20.80;99.90;;;;;;5053594;28;20233;-86
2022/03/08 02:41:33;;;;;;;11.13;1.90;;;20.80;99.90;;;;;;5053802;28;20194;-80
2022/03/08 02:44:06;;;;;;;11.82;2.42;;;20.80;99.90;;;;;;5053553;28;20193;-91
2022/03/08 02:46:36;;;;;;;12.18;2.40;;;20.80;99.90;;;;;;5053653;28;20190;-83
2022/03/08 02:49:07;;;;;;;9.30;2.40;;;20.80;99.90;;;;;;5053339;28;20190;-84
2022/03/08 02:51:40;;;;;;;11.30;2.75;;;20.80;99.90;;;;;;5053568;28;20190;-83
2022/03/08 02:54:10;;;;;;;11.82;3.20;;;20.80;99.90;;;;;;5053483;28;20283;-87
2022/03/08 02:56:41;;;;;;;9.65;2.45;;;20.80;99.90;;;;;;5053535;28;20197;-81
2022/03/08 02:59:12;;;;;;;8.55;2.58;;;20.80;99.90;;;;;;5053437;28;20193;-81
2022/03/08 03:01:43;;;;;;;8.30;2.88;;;20.80;99.90;;;;;;5053440;28;20211;-83
2022/03/08 03:04:13;;;;;;;11.98;2.63;;;20.80;99.90;;;;;;5053142;28;20205;-84
2022/03/08 03:06:47;;;;;;;8.30;2.42;;;20.80;99.90;;;;;;5033659;28;20248;-83
2022/03/08 03:09:17;;;;;;;10.75;2.40;;;20.80;99.90;;;;;;5033448;28;20190;-84
2022/03/08 03:11:48;;;;;;;11.95;2.60;;;20.90;99.90;;;;;;5038732;28;20584;-83
2022/03/08 03:14:19;;;;;;;8.35;2.42;;;20.80;99.90;;;;;;5053298;28;20689;-83
2022/03/08 03:16:50;;;;;;;9.52;2.78;;;20.80;99.90;;;;;;5048108;28;20186;-82
2022/03/08 03:19:20;;;;;;;5.63;2.05;;;20.90;99.90;;;;;;5039694;28;20202;-80
2022/03/08 03:21:53;;;;;;;7.05;2.08;;;20.90;99.90;;;;;;5033594;28;20210;-83
2022/03/08 03:24:23;;;;;;;7.32;2.65;;;20.80;99.90;;;;;;5053099;28;20189;-83
2022/03/08 03:26:54;;;;;;;14.50;3.05;;;20.80;99.90;;;;;;5053065;28;20196;-84
2022/03/08 03:29:25;;;;;;;9.73;2.85;;;20.90;99.90;;;;;;5053161;28;20196;-84
2022/03/08 03:31:55;;;;;;;10.02;2.90;;;20.80;99.90;;;;;;5052925;28;20699;-84
2022/03/08 03:34:26;;;;;;;8.05;2.88;;;20.80;99.90;;;;;;5049234;28;20214;-86
2022/03/08 03:36:59;;;;;;;7.35;2.70;;;20.80;99.90;;;;;;5035582;28;20229;-89
2022/03/08 03:39:32;;;;;;;8.65;2.60;;;20.80;99.90;;;;;;5037610;28;20200;-89
2022/03/08 03:42:03;;;;;;;10.70;3.10;;;20.70;99.90;;;;;;5037576;28;20606;-91
2022/03/08 03:44:34;;;;;;;9.88;2.90;;;20.70;99.90;;;;;;5037417;28;20650;-86
2022/03/08 03:47:05;;;;;;;11.75;2.78;;;20.70;99.90;;;;;;5037451;28;20213;-89
2022/03/08 03:49:35;;;;;;;10.45;2.80;;;20.70;99.90;;;;;;5037467;28;20197;-91
2022/03/08 03:52:09;;;;;;;8.82;2.80;;;20.60;99.90;;;;;;5037063;28;20198;-85
2022/03/08 03:54:40;;;;;;;10.05;3.33;;;20.70;99.90;;;;;;5037002;28;20217;-85
2022/03/08 03:57:14;;;;;;;9.07;2.65;;;20.70;99.90;;;;;;5037026;28;20563;-83
2022/03/08 03:59:45;;;;;;;11.10;2.58;;;20.70;99.90;;;;;;5036869;28;20190;-86
2022/03/08 04:02:15;;;;;;;15.70;3.15;;;20.60;99.90;;;;;;5036751;28;20600;-88
2022/03/08 04:04:47;;;;;;;13.02;2.78;;;20.60;99.90;;;;;;5037108;28;20190;-84
2022/03/08 04:07:20;;;;;;;13.02;2.75;;;20.60;99.90;;;;;;5036953;28;20198;-86
2022/03/08 04:09:51;;;;;;;9.68;2.20;;;20.60;99.90;;;;;;5037795;28;20244;-85
2022/03/08 04:12:21;;;;;;;6.10;1.92;;;20.50;99.90;;;;;;5047666;28;20253;-86
2022/03/08 04:14:52;;;;;;;6.15;1.55;;;20.50;99.90;;;;;;5036420;28;20229;-84
2022/03/08 04:17:22;;;;;;;4.50;1.55;;;20.50;99.90;;;;;;5050761;28;20185;-87
2022/03/08 04:19:53;;;;;;;6.32;1.38;;;20.50;99.90;;;;;;5056427;28;20190;-83
2022/03/08 04:22:26;;;;;;;5.88;1.50;;;20.50;99.90;;;;;;5056355;28;20664;-87
2022/03/08 04:24:57;;;;;;;10.90;1.70;;;20.50;99.90;;;;;;5056458;28;20653;-87
2022/03/08 04:27:28;;;;;;;7.22;1.45;;;20.50;99.90;;;;;;5056275;28;20273;-90
2022/03/08 04:29:58;;;;;;;8.23;1.35;;;20.50;99.90;;;;;;5038009;28;20284;-85
2022/03/08 04:32:29;;;;;;;6.68;1.17;;;20.50;99.90;;;;;;5036477;28;20217;-88
2022/03/08 04:35:02;;;;;;;5.78;1.50;;;20.50;99.90;;;;;;5036192;28;20288;-84
2022/03/08 04:37:34;;;;;;;5.82;1.20;;;20.50;99.90;;;;;;5036062;28;20230;-88
2022/03/08 04:40:06;;;;;;;3.25;0.82;;;20.50;99.90;;;;;;5036063;28;20203;-85
2022/03/08 04:42:37;;;;;;;3.65;0.90;;;20.50;99.90;;;;;;5036045;28;20194;-83
2022/03/08 04:45:09;;;;;;;3.65;0.90;;;20.50;99.90;;;;;;5035769;28;20190;-82
2022/03/08 04:47:40;;;;;;;3.80;0.93;;;20.50;99.90;;;;;;5035555;28;20193;-83
2022/03/08 04:50:14;;;;;;;4.88;0.80;;;20.50;99.90;;;;;;5036054;28;20190;-83
2022/03/08 04:52:47;;;;;;;6.47;1.38;;;20.50;99.90;;;;;;5048140;28;20193;-81
2022/03/08 04:55:19;;;;;;;5.20;1.13;;;20.40;99.90;;;;;;5037025;28;20218;-83
2022/03/08 04:57:50;;;;;;;4.78;1.10;;;20.50;99.90;;;;;;5044074;28;20560;-84
2022/03/08 05:00:21;;;;;;;4.38;1.08;;;20.40;99.90;;;;;;5046748;28;20193;-81
2022/03/08 05:02:51;;;;;;;2.10;0.70;;;20.50;99.90;;;;;;5043454;28;20191;-83
2022/03/08 05:05:22;;;;;;;4.20;1.20;;;20.50;99.90;;;;;;5049124;28;20231;-82
2022/03/08 05:07:54;;;;;;;5.45;0.82;;;20.50;99.90;;;;;;5054683;28;20189;-81
2022/03/08 05:10:25;;;;;;;3.65;0.70;;;20.50;99.90;;;;;;5038529;28;20222;-81
2022/03/08 05:12:59;;;;;;;2.22;0.50;;;20.40;99.90;;;;;;5049417;28;20638;-89
2022/03/08 05:15:30;;;;;;;2.92;0.75;;;20.40;99.90;;;;;;5044193;28;20225;-83
2022/03/08 05:18:04;;;;;;;2.30;0.75;;;20.40;99.90;;;;;;5044442;28;20206;-86
2022/03/08 05:20:36;;;;;;;2.03;0.60;;;20.40;99.90;;;;;;5050258;28;20271;-85
2022/03/08 05:23:09;;;;;;;1.55;0.50;;;20.30;99.90;;;;;;5046975;28;20237;-84
2022/03/08 05:25:40;;;;;;;4.03;0.60;;;20.20;99.90;;;;;;5051114;28;20186;-83
2022/03/08 05:28:10;;;;;;;2.33;0.50;;;20.20;99.90;;;;;;5049519;28;20187;-82
2022/03/08 05:30:41;;;;;;;1.05;0.32;;;20.10;99.90;;;;;;5039569;28;20186;-82
2022/03/08 05:33:12;;;;;;;1.00;0.40;;;20.10;99.90;;;;;;5042926;28;20198;-81
2022/03/08 05:35:42;;;;;;;2.97;0.50;;;20.00;99.90;;;;;;5042835;28;20264;-80
2022/03/08 05:38:15;;;;;;;1.58;0.40;;;20.10;99.90;;;;;;5038977;28;20233;-81
2022/03/08 05:40:46;;;;;;;2.45;0.40;;;20.10;99.90;;;;;;5051714;28;20255;-81
2022/03/08 05:43:16;;;;;;;2.17;0.50;;;20.10;99.90;;;;;;5046907;28;20195;-81
2022/03/08 05:45:47;;;;;;;2.53;0.40;;;20.10;99.90;;;;;;5045946;28;20182;-83
2022/03/08 05:48:18;;;;;;;2.90;0.50;;;20.00;99.90;;;;;;5035108;28;20646;-78
2022/03/08 05:50:48;;;;;;;1.42;0.40;;;20.00;99.90;;;;;;5046303;28;20194;-80
2022/03/08 05:53:21;;;;;;;1.52;0.40;;;20.00;99.90;;;;;;5046203;28;20661;-80
2022/03/08 05:55:51;;;;;;;0.93;0.35;;;19.90;99.90;;;;;;5042990;28;20221;-84
2022/03/08 05:58:22;;;;;;;1.50;0.40;;;19.90;99.90;;;;;;5044110;28;20190;-82
2022/03/08 06:00:53;;;;;;;1.15;0.30;;;19.90;99.90;;;;;;5046878;28;20200;-83
2022/03/08 06:03:23;;;;;;;1.27;0.30;;;19.90;99.90;;;;;;5042215;28;20257;-83
2022/03/08 06:05:54;;;;;;;3.10;0.40;;;19.90;99.90;;;;;;5048329;28;20190;-83
2022/03/08 06:08:27;;;;;;;0.77;0.30;;;19.90;99.90;;;;;;5042148;28;20185;-81
2022/03/08 06:10:57;;;;;;;3.78;0.47;;;19.90;99.90;;;;;;5039837;28;20275;-86
2022/03/08 06:13:28;;;;;;;1.20;0.50;;;19.90;99.90;;;;;;5047012;28;20212;-81
2022/03/08 06:15:59;;;;;;;2.05;0.50;;;19.90;99.90;;;;;;5041619;28;20209;-82
2022/03/08 06:18:29;;;;;;;3.50;0.98;;;19.90;99.90;;;;;;5039566;28;20252;-80
2022/03/08 06:21:00;;;;;;;1.48;0.57;;;19.90;99.90;;;;;;5047054;28;20200;-79
2022/03/08 06:23:33;;;;;;;1.65;0.57;;;19.90;99.90;;;;;;5038803;28;20195;-79
2022/03/08 06:26:04;;;;;;;1.55;0.60;;;19.90;99.90;;;;;;5041718;28;20662;-80
2022/03/08 06:28:35;;;;;;;2.35;0.45;;;19.90;99.90;;;;;;5045111;28;20187;-82
2022/03/08 06:31:06;;;;;;;1.80;0.63;;;19.90;99.90;;;;;;5034091;28;20194;-80
2022/03/08 06:33:36;;;;;;;1.50;0.40;;;20.00;99.90;;;;;;5045157;28;20243;-79
2022/03/08 06:36:07;;;;;;;1.33;0.60;;;20.00;99.90;;;;;;5034095;28;20697;-80
2022/03/08 06:38:39;;;;;;;1.35;0.38;;;20.00;99.90;;;;;;5040539;28;20217;-77
2022/03/08 06:41:10;;;;;;;1.48;0.50;;;20.00;99.90;;;;;;5038583;28;20645;-76
2022/03/08 06:43:41;;;;;;;1.65;0.60;;;20.00;99.90;;;;;;5040375;28;20190;-79
2022/03/08 06:46:11;;;;;;;2.72;0.50;;;20.00;99.90;;;;;;5041502;28;20194;-77
2022/03/08 06:48:42;;;;;;;1.45;0.45;;;20.00;99.90;;;;;;5045558;28;20351;-80
2022/03/08 06:51:13;;;;;;;0.65;0.30;;;20.00;99.90;;;;;;5041664;28;20193;-82
2022/03/08 06:53:46;;;;;;;1.63;0.40;;;20.00;99.90;;;;;;5044620;28;20190;-78
2022/03/08 06:56:17;;;;;;;1.38;0.40;;;20.00;99.90;;;;;;5043914;28;20205;-79
2022/03/08 06:58:47;;;;;;;2.30;0.57;;;20.10;99.90;;;;;;5041891;28;20642;-80
2022/03/08 07:01:18;;;;;;;1.20;0.40;;;20.10;99.90;;;;;;5040610;28;20190;-79
2022/03/08 07:03:48;;;;;;;1.85;0.30;;;20.10;99.90;;;;;;5033632;28;20650;-79
2022/03/08 07:06:19;;;;;;;1.15;0.40;;;20.00;99.90;;;;;;5045064;28;20194;-81
2022/03/08 07:08:53;;;;;;;1.50;0.40;;;20.10;99.90;;;;;;5041674;28;20244;-80
2022/03/08 07:11:24;;;;;;;1.08;0.30;;;20.10;99.90;;;;;;5037416;28;20241;-81
2022/03/08 07:13:55;;;;;;;0.68;0.30;;;20.10;99.90;;;;;;5046533;28;20204;-80
2022/03/08 07:16:25;;;;;;;3.63;0.30;;;20.10;99.90;;;;;;5048105;28;20620;-80
2022/03/08 07:18:56;;;;;;;0.73;0.40;;;20.10;99.90;;;;;;5045565;28;20194;-78
2022/03/08 07:21:27;;;;;;;0.65;0.20;;;20.10;99.90;;;;;;5040979;28;20185;-80
2022/03/08 07:23:59;;;;;;;1.13;0.30;;;20.10;99.90;;;;;;5037212;28;20189;-79
2022/03/08 07:26:30;;;;;;;0.30;0.20;;;20.10;99.90;;;;;;5037788;28;20558;-78
2022/03/08 07:29:00;;;;;;;0.32;0.20;;;20.10;99.90;;;;;;5042570;28;20190;-78
2022/03/08 07:31:31;;;;;;;0.90;0.32;;;20.20;99.90;;;;;;5033246;28;20190;-78
2022/03/08 07:34:02;;;;;;;0.25;0.20;;;20.10;99.90;;;;;;5047080;28;20263;-79
2022/03/08 07:36:33;;;;;;;0.63;0.30;;;20.20;99.90;;;;;;5044357;28;20283;-81
2022/03/08 07:39:06;;;;;;;1.30;0.30;;;20.20;99.90;;;;;;5042100;28;20765;-79
2022/03/08 07:41:37;;;;;;;0.85;0.30;;;20.20;99.90;;;;;;5045803;28;20189;-79
2022/03/08 07:44:07;;;;;;;0.52;0.32;;;20.20;99.90;;;;;;5042371;28;20701;-79
2022/03/08 07:46:39;;;;;;;2.15;0.30;;;20.20;99.90;;;;;;5045782;28;20195;-78
2022/03/08 07:49:10;;;;;;;0.20;0.20;;;20.30;99.90;;;;;;5045230;28;20197;-78
2022/03/08 07:51:41;;;;;;;0.38;0.30;;;20.30;99.90;;;;;;5044805;28;20190;-78
2022/03/08 07:54:13;;;;;;;0.30;0.30;;;20.30;99.90;;;;;;5042819;28;20191;-79
2022/03/08 07:56:44;;;;;;;0.75;0.20;;;20.40;99.90;;;;;;5041490;28;20224;-81
2022/03/08 07:59:15;;;;;;;2.22;0.30;;;20.40;99.90;;;;;;5052906;28;20186;-78
2022/03/08 08:01:45;;;;;;;0.88;0.30;;;20.30;99.90;;;;;;5036702;28;20197;-80
2022/03/08 08:04:16;;;;;;;0.45;0.22;;;20.30;99.90;;;;;;5032893;28;20194;-78
2022/03/08 08:06:47;;;;;;;1.75;0.20;;;20.20;99.90;;;;;;5037214;28;20197;-79
2022/03/08 08:09:19;;;;;;;0.95;0.20;;;20.20;99.90;;;;;;5044573;28;20186;-79
2022/03/08 08:11:50;;;;;;;1.77;0.30;;;20.30;99.90;;;;;;5046317;28;20268;-78
2022/03/08 08:14:21;;;;;;;1.70;0.30;;;20.30;99.90;;;;;;5033977;28;20643;-80
2022/03/08 08:16:51;;;;;;;0.35;0.20;;;20.30;99.90;;;;;;5041136;28;20194;-80
2022/03/08 08:19:22;;;;;;;0.73;0.20;;;20.20;99.90;;;;;;5040448;28;20182;-81
2022/03/08 08:21:52;;;;;;;0.32;0.20;;;20.20;99.90;;;;;;5040644;28;20191;-82
2022/03/08 08:24:25;;;;;;;0.30;0.20;;;20.20;99.90;;;;;;5048320;28;20244;-79
2022/03/08 08:26:56;;;;;;;0.47;0.20;;;20.30;99.90;;;;;;5040462;28;20186;-78
2022/03/08 08:29:26;;;;;;;2.92;0.30;;;20.30;99.90;;;;;;5051148;28;20189;-79
2022/03/08 08:31:57;;;;;;;0.38;0.20;;;20.30;99.90;;;;;;5045188;28;20195;-78
2022/03/08 08:34:28;;;;;;;0.60;0.20;;;20.30;99.90;;;;;;5044626;28;20197;-77
2022/03/08 08:36:58;;;;;;;0.57;0.20;;;20.30;99.90;;;;;;5049522;28;20244;-80
2022/03/08 08:39:31;;;;;;;0.32;0.20;;;20.40;99.90;;;;;;5048036;28;20251;-81
2022/03/08 08:42:01;;;;;;;0.65;0.20;;;20.40;99.90;;;;;;5045132;28;20189;-77
2022/03/08 08:44:32;;;;;;;0.90;0.20;;;20.40;99.90;;;;;;5044624;28;20185;-76
2022/03/08 08:47:03;;;;;;;0.13;0.10;;;20.50;99.90;;;;;;5041717;28;20875;-80
2022/03/08 08:49:34;;;;;;;0.38;0.20;;;20.40;99.90;;;;;;5042596;28;20650;-78
2022/03/08 08:52:05;;;;;;;0.10;0.10;;;20.50;99.90;;;;;;5047715;28;20187;-80
2022/03/08 08:54:38;;;;;;;2.20;0.10;;;20.50;99.90;;;;;;5043575;28;20189;-78
2022/03/08 08:57:08;;;;;;;0.10;0.10;;;20.50;99.90;;;;;;5043117;28;20638;-78
2022/03/08 08:59:39;;;;;;;0.85;0.20;;;20.50;99.90;;;;;;5043584;28;20213;-79
2022/03/08 09:02:11;;;;;;;3.67;0.20;;;20.50;99.90;;;;;;5036976;28;20197;-79
2022/03/08 09:04:41;;;;;;;1.25;0.20;;;20.50;99.90;;;;;;5046785;28;20277;-77
2022/03/08 09:07:12;;;;;;;0.35;0.10;;;20.40;99.90;;;;;;5035564;28;20201;-80
2022/03/08 09:09:47;;;;;;;0.95;0.20;;;20.40;99.90;;;;;;5049610;28;20190;-79
2022/03/08 09:12:17;;;;;;;0.32;0.20;;;20.40;99.90;;;;;;5044280;28;20199;-79
2022/03/08 09:14:48;;;;;;;0.28;0.17;;;20.40;99.90;;;;;;5055366;28;20239;-79
2022/03/08 09:17:19;;;;;;;0.75;0.10;;;20.30;99.90;;;;;;5040332;28;20193;-78
2022/03/08 09:19:49;;;;;;;0.10;0.10;;;20.30;99.90;;;;;;5035435;28;20248;-79
2022/03/08 09:22:20;;;;;;;0.50;0.15;;;20.20;99.90;;;;;;5035408;28;20194;-79
2022/03/08 09:24:53;;;;;;;0.20;0.17;;;20.20;99.90;;;;;;5035310;28;20198;-79
2022/03/08 09:27:23;;;;;;;0.47;0.13;;;20.10;99.90;;;;;;5035374;28;20198;-79
2022/03/08 09:29:54;;;;;;;0.35;0.20;;;20.00;99.90;;;;;;5053573;28;20240;-80
2022/03/08 09:32:27;;;;;;;1.45;0.20;;;19.90;99.90;;;;;;5053447;28;20280;-81
2022/03/08 09:34:58;;;;;;;0.95;0.20;;;19.80;99.90;;;;;;5044241;28;20345;-79
2022/03/08 09:37:28;;;;;;;0.30;0.20;;;19.80;99.90;;;;;;5054811;28;20263;-78
2022/03/08 09:40:01;;;;;;;1.20;0.10;;;19.70;99.90;;;;;;5037864;28;20202;-77
2022/03/08 09:42:33;;;;;;;0.32;0.10;;;19.70;99.90;;;;;;5035094;28;20186;-78
2022/03/08 09:45:06;;;;;;;0.28;0.20;;;19.70;99.90;;;;;;5035036;28;20237;-83
2022/03/08 09:47:37;;;;;;;0.10;0.10;;;19.60;99.90;;;;;;5035184;28;20206;-83
2022/03/08 09:50:09;;;;;;;0.50;0.20;;;19.60;99.90;;;;;;5034889;28;20193;-78
2022/03/08 09:52:41;;;;;;;1.30;0.20;;;19.60;99.90;;;;;;5054776;28;20194;-86
2022/03/08 09:55:17;;;;;;;1.77;0.20;;;19.60;99.90;;;;;;5054569;28;20240;-79
2022/03/08 09:57:50;;;;;;;0.28;0.20;;;19.60;99.90;;;;;;5054699;28;20196;-84
2022/03/08 10:00:23;;;;;;;1.58;0.35;;;19.60;99.90;;;;;;5054610;28;20244;-80
2022/03/08 10:02:57;;;;;;;0.63;0.20;;;19.60;99.90;;;;;;5054582;28;20235;-80
2022/03/08 10:05:39;;;;;;;1.23;0.30;;;19.70;99.90;;;;;;5054184;28;20196;-79
2022/03/08 10:08:13;;;;;;;0.40;0.20;;;19.60;99.90;;;;;;5054452;28;20288;-79
2022/03/08 10:10:53;;;;;;;1.80;0.40;;;19.70;99.90;;;;;;5047009;28;20220;-79
2022/03/08 10:13:25;;;;;;;0.73;0.30;;;19.70;99.90;;;;;;5050790;28;20196;-78
2022/03/08 10:16:13;;;;;;;0.32;0.20;;;19.70;99.90;;;;;;5050381;28;20213;-79
2022/03/08 10:18:46;;;;;;;1.27;0.40;;;19.70;99.90;;;;;;5034111;28;20244;-80
2022/03/08 10:21:34;;;;;;;3.15;0.52;;;19.70;99.90;;;;;;5034270;28;20244;-81
2022/03/08 10:24:08;;;;;;;1.45;0.50;;;19.60;99.90;;;;;;5034232;28;20201;-81
2022/03/08 10:26:50;;;;;;;1.30;0.60;;;19.60;99.90;;;;;;5034213;28;20244;-78
2022/03/08 10:29:28;;;;;;;3.25;0.50;;;19.50;99.90;;;;;;5048276;28;20663;-87
2022/03/08 10:32:10;;;;;;;4.55;0.60;;;19.40;99.90;;;;;;5054082;28;20186;-83
2022/03/08 10:34:42;;;;;;;8.55;0.90;;;19.30;99.90;;;;;;5053753;28;20193;-85
2022/03/08 10:37:15;;;;;;;3.47;0.60;;;19.20;99.90;;;;;;5053725;28;20225;-81
2022/03/08 10:39:53;;;;;;;4.20;0.68;;;19.10;99.90;;;;;;5054060;28;20186;-80
2022/03/08 10:42:26;;;;;;;5.78;1.00;;;19.10;99.90;;;;;;5053919;28;20189;-86
2022/03/08 10:45:06;;;;;;;6.43;1.02;;;19.00;99.90;;;;;;5053254;28;20185;-79
2022/03/08 10:47:42;;;;;;;5.10;1.05;;;19.00;99.90;;;;;;5053863;28;20255;-78
2022/03/08 10:50:14;;;;;;;2.97;0.90;;;18.90;99.90;;;;;;5053700;28;20204;-80
2022/03/08 10:52:46;;;;;;;3.20;0.80;;;18.80;99.90;;;;;;5053700;28;20695;-80
2022/03/08 10:55:18;;;;;;;5.03;0.90;;;18.80;99.90;;;;;;5053610;28;20197;-81
2022/03/08 10:57:53;;;;;;;3.17;0.77;;;18.80;99.90;;;;;;5053543;28;20226;-81
2022/03/08 11:00:28;;;;;;;5.15;0.73;;;18.70;99.90;;;;;;5053576;28;20189;-80
2022/03/08 11:03:01;;;;;;;6.65;1.20;;;18.70;99.90;;;;;;5053333;28;20197;-77
2022/03/08 11:05:33;;;;;;;2.97;0.80;;;18.70;99.90;;;;;;5042116;28;20236;-83
2022/03/08 11:08:04;;;;;;;4.25;0.95;;;18.70;99.90;;;;;;5033416;28;20186;-89
2022/03/08 11:10:35;;;;;;;3.58;0.70;;;18.70;99.90;;;;;;5038895;28;20264;-80
2022/03/08 11:13:09;;;;;;;3.53;0.80;;;18.70;99.90;;;;;;5039200;28;20277;-80
2022/03/08 11:15:40;;;;;;;2.88;0.70;;;18.70;99.90;;;;;;5035112;28;20194;-79
2022/03/08 11:18:12;;;;;;;2.97;0.70;;;18.70;99.90;;;;;;5053086;28;20198;-81
2022/03/08 11:20:44;;;;;;;5.25;0.70;;;18.70;99.90;;;;;;5053244;28;20194;-83
2022/03/08 11:23:17;;;;;;;2.13;0.40;;;18.70;99.90;;;;;;5053273;28;20190;-82
2022/03/08 11:25:49;;;;;;;0.73;0.40;;;18.70;99.90;;;;;;5053047;28;20198;-81
2022/03/08 11:28:22;;;;;;;2.10;0.40;;;18.70;99.90;;;;;;5047334;28;20187;-81
2022/03/08 11:30:56;;;;;;;1.90;0.40;;;18.70;99.90;;;;;;5033073;28;20198;-79
2022/03/08 11:33:41;;;;;;;2.38;0.50;;;18.70;99.90;;;;;;5033243;28;20198;-82
2022/03/08 11:36:21;;;;;;;1.38;0.30;;;18.70;99.90;;;;;;5033218;28;20221;-80
2022/03/08 11:39:29;;;;;;;1.13;0.43;;;18.70;99.90;;;;;;5033171;28;20584;-81
2022/03/08 11:42:01;;;;;;;1.13;0.35;;;18.70;99.90;;;;;;5018801;28;20752;-80
2022/03/08 11:44:36;;;;;;;0.20;0.20;;;18.70;99.90;;;;;;5033123;28;20191;-81
2022/03/08 11:47:14;;;;;;;0.57;0.20;;;18.70;99.90;;;;;;5032935;28;20186;-78
2022/03/08 11:49:53;;;;;;;0.60;0.30;;;18.70;99.90;;;;;;5033068;28;20187;-79
2022/03/08 11:52:28;;;;;;;1.58;0.30;;;18.70;99.90;;;;;;5033131;28;20194;-78
2022/03/08 11:55:03;;;;;;;1.73;0.32;;;18.70;99.90;;;;;;5033064;28;20190;-78
2022/03/08 11:57:56;;;;;;;1.02;0.28;;;18.70;99.90;;;;;;5034497;28;20257;-78
2022/03/08 12:00:33;;;;;;;1.65;0.22;;;18.60;99.90;;;;;;5036811;28;20741;-78
2022/03/08 12:03:06;;;;;;;4.03;0.30;;;18.70;99.90;;;;;;5036928;28;20194;-77
2022/03/08 12:05:48;;;;;;;1.38;0.25;;;18.70;99.90;;;;;;5048873;28;20194;-80
2022/03/08 12:08:53;;;;;;;1.77;0.50;;;18.70;99.90;;;;;;5056710;28;20190;-78
2022/03/08 12:11:44;;;;;;;1.05;0.40;;;18.70;99.90;;;;;;5043733;28;20261;-79
2022/03/08 12:14:16;;;;;;;1.30;0.40;;;18.80;99.90;;;;;;5056467;28;20598;-79
2022/03/08 12:16:50;;;;;;;2.92;0.40;;;18.80;99.90;;;;;;5045153;28;20214;-78
2022/03/08 12:19:33;;;;;;;1.63;0.40;;;18.80;99.90;;;;;;5036649;28;20191;-78
2022/03/08 12:22:05;;;;;;;1.63;0.40;;;18.80;99.90;;;;;;5036539;28;20650;-79
2022/03/08 12:24:42;;;;;;;2.15;0.40;;;18.80;99.90;;;;;;5036447;28;20196;-77
2022/03/08 12:27:13;;;;;;;1.35;0.40;;;18.80;99.90;;;;;;5036486;28;20194;-77
2022/03/08 12:29:55;;;;;;;0.57;0.30;;;18.80;99.90;;;;;;5053778;28;20194;-77
2022/03/08 12:32:35;;;;;;;1.27;0.40;;;18.80;99.90;;;;;;5056312;28;20202;-77
2022/03/08 12:35:15;;;;;;;1.98;0.40;;;18.90;99.90;;;;;;5056315;28;20244;-76
2022/03/08 12:37:48;;;;;;;2.17;0.30;;;18.90;99.90;;;;;;5056027;28;20241;-78
2022/03/08 12:40:37;;;;;;;0.77;0.30;;;19.00;99.90;;;;;;5054584;28;20241;-78
2022/03/08 12:43:10;;;;;;;0.88;0.30;;;19.00;99.90;;;;;;5045961;28;20733;-77
2022/03/08 12:45:43;;;;;;;1.45;0.30;;;19.00;99.90;;;;;;5055921;28;20239;-78
2022/03/08 12:48:16;;;;;;;1.77;0.40;;;19.00;99.90;;;;;;5037290;28;20194;-79
2022/03/08 12:50:48;;;;;;;1.45;0.30;;;19.10;99.90;;;;;;5036078;28;20260;-78
2022/03/08 12:53:24;;;;;;;0.20;0.20;;;19.10;99.90;;;;;;5036086;28;20198;-80
2022/03/08 12:55:56;;;;;;;2.78;0.30;;;19.10;99.90;;;;;;5035949;28;20627;-80
2022/03/08 12:58:29;;;;;;;0.52;0.30;;;19.20;99.90;;;;;;5037994;28;20715;-79
2022/03/08 13:01:01;;;;;;;1.60;0.45;;;19.20;99.90;;;;;;5055796;28;20190;-78
2022/03/08 13:03:35;;;;;;;0.73;0.20;;;19.20;99.90;;;;;;5055593;28;20276;-80
2022/03/08 13:06:08;;;;;;;0.73;0.10;;;19.20;99.90;;;;;;5055729;28;20281;-80
2022/03/08 13:08:40;;;;;;;0.38;0.22;;;19.20;99.90;;;;;;5055169;28;20196;-80
2022/03/08 13:11:12;;;;;;;0.65;0.10;;;19.20;99.90;;;;;;5043968;28;20218;-80